createdAt,value
2022-12-14T00:01:40.645Z,40.27
2022-12-14T00:04:08.127Z,40.02
2022-12-14T00:06:34.779Z,40.49
2022-12-14T00:09:03.742Z,40.38
2022-12-14T00:11:32.748Z,39.84
2022-12-14T00:14:01.830Z,40.55
2022-12-14T00:16:30.633Z,40.58
2022-12-14T00:18:59.513Z,40.10
2022-12-14T00:21:27.480Z,39.79
2022-12-14T00:23:55.360Z,40.95
2022-12-14T00:26:28.013Z,40.36
2022-12-14T00:28:56.208Z,41.32
2022-12-14T00:31:24.567Z,40.95
2022-12-14T00:33:52.069Z,40.96
2022-12-14T00:36:19.511Z,41.16
2022-12-14T00:38:46.304Z,41.18
2022-12-14T00:41:13.507Z,40.68
2022-12-14T00:43:40.861Z,41.30
2022-12-14T00:46:07.887Z,40.94
2022-12-14T00:48:35.108Z,41.11
2022-12-14T00:51:02.206Z,41.19
2022-12-14T00:53:28.951Z,41.34
2022-12-14T00:55:55.701Z,41.81
2022-12-14T00:58:24.667Z,41.88
2022-12-14T01:01:07.042Z,41.67
2022-12-14T01:03:34.745Z,41.79
2022-12-14T01:06:02.392Z,41.44
2022-12-14T01:08:35.882Z,42.05
2022-12-14T01:11:07.889Z,41.88
2022-12-14T01:13:36.908Z,41.28
2022-12-14T01:16:10.459Z,41.46
2022-12-14T01:18:39.169Z,41.84
2022-12-14T01:21:21.801Z,41.06
2022-12-14T01:23:53.313Z,41.19
2022-12-14T01:26:20.304Z,41.02
2022-12-14T01:28:48.263Z,40.25
2022-12-14T01:31:17.461Z,40.70
2022-12-14T01:33:45.592Z,40.57
2022-12-14T01:36:17.978Z,40.47
2022-12-14T01:38:45.339Z,40.95
2022-12-14T01:41:34.395Z,40.69
2022-12-14T01:44:24.116Z,40.44
2022-12-14T01:46:58.460Z,40.77
2022-12-14T01:49:34.504Z,40.46
2022-12-14T01:52:09.952Z,40.89
2022-12-14T01:54:48.730Z,41.18
2022-12-14T01:57:19.884Z,41.52
2022-12-14T01:59:47.339Z,40.52
2022-12-14T02:02:16.112Z,40.72
2022-12-14T02:04:50.074Z,41.86
2022-12-14T02:07:17.960Z,41.69
2022-12-14T02:09:46.252Z,41.17
2022-12-14T02:12:27.661Z,41.02
2022-12-14T02:14:55.678Z,41.31
2022-12-14T02:17:22.731Z,41.63
2022-12-14T02:19:49.519Z,41.59
2022-12-14T02:22:50.306Z,41.30
2022-12-14T02:25:49.318Z,41.71
2022-12-14T02:28:32.234Z,41.56
2022-12-14T02:31:32.749Z,42.10
2022-12-14T02:34:08.002Z,41.22
2022-12-14T02:36:58.029Z,42.09
2022-12-14T02:39:34.769Z,42.87
2022-12-14T02:42:14.957Z,42.20
2022-12-14T02:45:09.456Z,42.77
2022-12-14T02:48:01.359Z,42.50
2022-12-14T02:50:43.178Z,42.21
2022-12-14T02:53:39.183Z,42.19
2022-12-14T02:56:15.166Z,42.21
2022-12-14T02:58:50.626Z,42.14
2022-12-14T03:01:22.108Z,41.82
2022-12-14T03:03:49.125Z,41.83
2022-12-14T03:06:25.928Z,41.92
2022-12-14T03:09:17.761Z,41.68
2022-12-14T03:12:10.375Z,41.69
2022-12-14T03:14:43.488Z,41.37
2022-12-14T03:17:19.397Z,41.77
2022-12-14T03:19:52.851Z,41.87
2022-12-14T03:22:30.926Z,40.78
2022-12-14T03:25:05.097Z,41.21
2022-12-14T03:27:37.152Z,41.11
2022-12-14T03:30:31.650Z,40.93
2022-12-14T03:33:09.818Z,40.70
2022-12-14T03:36:09.787Z,41.17
2022-12-14T03:38:44.426Z,41.62
2022-12-14T03:41:26.205Z,41.97
2022-12-14T03:44:06.349Z,42.47
2022-12-14T03:47:05.459Z,42.74
2022-12-14T03:49:49.189Z,42.57
2022-12-14T03:52:52.985Z,42.68
2022-12-14T03:55:57.291Z,43.35
2022-12-14T03:58:39.181Z,43.84
2022-12-14T04:01:30.635Z,43.93
2022-12-14T04:04:06.527Z,44.25
2022-12-14T04:06:46.362Z,43.70
2022-12-14T04:09:35.892Z,43.71
2022-12-14T04:12:31.421Z,44.33
2022-12-14T04:15:34.353Z,45.48
2022-12-14T04:18:26.064Z,45.86
2022-12-14T04:21:03.437Z,46.24
2022-12-14T04:23:54.597Z,45.60
2022-12-14T04:26:27.693Z,45.47
2022-12-14T04:29:18.652Z,45.81
2022-12-14T04:31:53.566Z,45.58
2022-12-14T04:34:27.061Z,45.62
2022-12-14T04:36:57.060Z,45.48
2022-12-14T04:39:51.827Z,45.88
2022-12-14T04:42:23.629Z,45.43
2022-12-14T04:44:54.319Z,45.78
2022-12-14T04:47:28.322Z,45.51
2022-12-14T04:50:18.880Z,45.30
2022-12-14T04:52:51.291Z,45.95
2022-12-14T04:55:40.613Z,46.48
2022-12-14T04:58:17.996Z,47.41
2022-12-14T05:00:58.689Z,48.33
2022-12-14T05:03:31.421Z,49.90
2022-12-14T05:06:16.326Z,50.56
2022-12-14T05:08:55.529Z,50.67
2022-12-14T05:14:54.665Z,51.45
2022-12-14T05:17:21.334Z,52.02
2022-12-14T05:19:50.286Z,52.19
2022-12-14T05:22:18.095Z,52.73
2022-12-14T05:24:45.083Z,52.66
2022-12-14T05:27:12.084Z,52.43
2022-12-14T05:29:41.486Z,52.37
2022-12-14T05:32:12.434Z,51.21
2022-12-14T05:34:39.156Z,50.87
2022-12-14T05:37:05.823Z,50.47
2022-12-14T05:39:32.367Z,50.76
2022-12-14T05:41:59.021Z,50.37
2022-12-14T05:44:25.808Z,51.10
2022-12-14T05:46:52.800Z,52.01
2022-12-14T05:49:19.683Z,52.27
2022-12-14T05:51:48.013Z,53.37
2022-12-14T05:54:15.088Z,53.18
2022-12-14T05:56:42.111Z,52.45
2022-12-14T05:59:08.839Z,52.78
2022-12-14T06:01:35.821Z,53.86
2022-12-14T06:04:02.659Z,54.65
2022-12-14T06:06:29.425Z,56.69
2022-12-14T06:08:56.570Z,57.36
2022-12-14T06:11:24.270Z,56.79
2022-12-14T06:13:51.696Z,55.86
2022-12-14T06:16:21.536Z,55.99
2022-12-14T06:18:50.972Z,55.84
2022-12-14T06:21:20.448Z,55.72
2022-12-14T06:23:47.792Z,55.77
2022-12-14T06:26:16.017Z,55.89
2022-12-14T06:28:43.179Z,57.02
2022-12-14T06:31:19.581Z,58.59
2022-12-14T06:33:46.912Z,59.73
2022-12-14T06:36:24.977Z,59.07
2022-12-14T06:38:53.195Z,59.59
2022-12-14T06:41:21.015Z,58.83
2022-12-14T06:43:49.179Z,59.63
2022-12-14T06:46:18.592Z,59.40
2022-12-14T06:48:53.335Z,58.94
2022-12-14T06:51:21.712Z,59.84
2022-12-14T06:53:53.393Z,61.19
2022-12-14T06:56:21.494Z,62.96
2022-12-14T06:58:48.672Z,60.95
2022-12-14T07:01:17.992Z,60.82
2022-12-14T07:03:53.648Z,60.37
2022-12-14T07:06:22.143Z,61.33
2022-12-14T07:08:49.967Z,60.80
2022-12-14T07:11:17.857Z,59.57
2022-12-14T07:13:48.825Z,59.68
2022-12-14T07:16:18.219Z,59.57
2022-12-14T07:18:44.894Z,59.40
2022-12-14T07:21:14.365Z,59.00
2022-12-14T07:23:43.009Z,58.93
2022-12-14T07:26:12.656Z,58.59
2022-12-14T07:28:40.696Z,58.49
2022-12-14T07:31:11.856Z,58.96
2022-12-14T07:33:38.952Z,58.00
2022-12-14T07:36:15.939Z,57.62
2022-12-14T07:38:45.216Z,57.51
2022-12-14T07:41:20.395Z,58.53
2022-12-14T07:43:49.738Z,58.99
2022-12-14T07:46:22.847Z,58.54
2022-12-14T07:48:55.866Z,58.10
2022-12-14T07:51:25.987Z,58.28
2022-12-14T07:53:53.048Z,57.84
2022-12-14T07:56:25.329Z,56.79
2022-12-14T07:58:54.833Z,57.12
2022-12-14T08:01:27.727Z,57.13
2022-12-14T08:03:57.444Z,57.23
2022-12-14T08:06:26.771Z,57.66
2022-12-14T08:08:54.227Z,58.10
2022-12-14T08:11:24.177Z,59.25
2022-12-14T08:13:55.803Z,59.70
2022-12-14T08:16:23.791Z,59.00
2022-12-14T08:18:53.549Z,58.90
2022-12-14T08:21:22.089Z,59.47
2022-12-14T08:23:50.859Z,59.03
2022-12-14T08:26:19.057Z,59.13
2022-12-14T08:28:46.260Z,58.84
2022-12-14T08:31:20.102Z,58.95
2022-12-14T08:33:47.401Z,58.21
2022-12-14T08:36:18.608Z,58.66
2022-12-14T08:38:54.623Z,58.58
2022-12-14T08:41:22.047Z,58.98
2022-12-14T08:43:54.679Z,59.22
2022-12-14T08:46:22.672Z,59.21
2022-12-14T08:48:52.426Z,58.72
2022-12-14T08:51:20.673Z,58.76
2022-12-14T08:53:50.154Z,59.06
2022-12-14T08:56:20.903Z,59.72
2022-12-14T08:58:49.605Z,60.53
2022-12-14T09:01:24.733Z,60.54
2022-12-14T09:04:02.821Z,60.49
2022-12-14T09:06:32.306Z,61.53
2022-12-14T09:08:59.713Z,61.52
2022-12-14T09:11:26.879Z,61.01
2022-12-14T09:13:59.754Z,60.78
2022-12-14T09:16:27.143Z,59.83
2022-12-14T09:18:54.433Z,59.78
2022-12-14T09:21:23.308Z,58.91
2022-12-14T09:23:59.624Z,58.82
2022-12-14T09:26:30.730Z,58.53
2022-12-14T09:29:04.512Z,58.38
2022-12-14T09:31:34.672Z,58.52
2022-12-14T09:34:04.035Z,58.57
2022-12-14T09:36:31.747Z,58.21
2022-12-14T09:38:59.571Z,58.33
2022-12-14T09:41:41.587Z,58.31
2022-12-14T09:44:27.362Z,58.54
2022-12-14T09:47:15.907Z,58.42
2022-12-14T09:49:45.657Z,57.53
2022-12-14T09:52:21.335Z,57.66
2022-12-14T09:55:04.343Z,58.70
2022-12-14T09:57:40.256Z,58.70
2022-12-14T10:00:19.446Z,58.96
2022-12-14T10:03:16.979Z,58.49
2022-12-14T10:06:25.904Z,58.05
2022-12-14T10:09:38.979Z,58.25
2022-12-14T10:12:39.893Z,56.95
2022-12-14T10:15:28.756Z,56.74
2022-12-14T10:18:01.388Z,56.99
2022-12-14T10:20:42.472Z,55.97
2022-12-14T10:23:19.491Z,55.86
2022-12-14T10:25:53.089Z,55.40
2022-12-14T10:28:37.977Z,55.23
2022-12-14T10:31:07.999Z,54.81
2022-12-14T10:33:36.092Z,54.71
2022-12-14T10:36:34.206Z,54.88
2022-12-14T10:39:07.530Z,54.31
2022-12-14T10:41:49.459Z,55.04
2022-12-14T10:44:50.182Z,55.23
2022-12-14T10:47:33.640Z,55.07
2022-12-14T10:50:13.778Z,54.55
2022-12-14T10:52:43.087Z,55.30
2022-12-14T10:55:19.077Z,55.24
2022-12-14T10:57:45.924Z,55.00
2022-12-14T11:00:22.931Z,55.23
2022-12-14T11:02:54.869Z,55.23
2022-12-14T11:05:41.411Z,55.44
2022-12-14T11:08:09.038Z,55.28
2022-12-14T11:10:39.762Z,55.39
2022-12-14T11:13:12.812Z,56.32
2022-12-14T11:15:51.254Z,55.46
2022-12-14T11:18:18.182Z,55.89
2022-12-14T11:21:03.799Z,55.61
2022-12-14T11:23:37.206Z,55.93
2022-12-14T11:26:09.825Z,54.95
2022-12-14T11:28:41.512Z,54.85
2022-12-14T11:31:14.367Z,54.92
2022-12-14T11:33:50.265Z,55.54
2022-12-14T11:36:28.678Z,54.53
2022-12-14T11:39:00.890Z,54.58
2022-12-14T11:41:35.124Z,54.67
2022-12-14T11:44:27.117Z,54.16
2022-12-14T11:47:16.439Z,53.62
2022-12-14T11:49:56.923Z,53.95
2022-12-14T11:52:25.209Z,54.74
2022-12-14T11:54:54.869Z,54.91
2022-12-14T11:57:35.136Z,54.74
2022-12-14T12:00:24.278Z,54.60
2022-12-14T12:03:28.460Z,54.44
2022-12-14T12:06:03.701Z,54.63
2022-12-14T12:08:33.859Z,54.60
2022-12-14T12:11:05.785Z,54.63
2022-12-14T12:13:39.142Z,55.16
2022-12-14T12:16:14.976Z,55.22
2022-12-14T12:19:12.212Z,55.38
2022-12-14T12:21:42.979Z,55.73
2022-12-14T12:24:09.800Z,55.74
2022-12-14T12:26:50.073Z,55.64
2022-12-14T12:29:42.280Z,54.95
2022-12-14T12:32:39.965Z,55.41
2022-12-14T12:35:18.825Z,55.61
2022-12-14T12:37:50.639Z,55.62
2022-12-14T12:40:40.441Z,55.70
2022-12-14T12:43:22.264Z,57.44
2022-12-14T12:45:56.495Z,57.62
2022-12-14T12:48:33.229Z,57.37
2022-12-14T12:51:04.252Z,58.41
2022-12-14T12:53:44.900Z,58.76
2022-12-14T12:56:18.814Z,58.35
2022-12-14T12:58:52.557Z,59.04
2022-12-14T13:01:27.512Z,59.92
2022-12-14T13:04:01.680Z,60.30
2022-12-14T13:06:32.910Z,61.10
2022-12-14T13:09:07.261Z,61.16
2022-12-14T13:11:39.731Z,61.56
2022-12-14T13:14:32.045Z,61.04
2022-12-14T13:17:01.275Z,60.97
2022-12-14T13:19:54.269Z,61.08
2022-12-14T13:22:31.885Z,61.56
2022-12-14T13:25:07.943Z,60.55
2022-12-14T13:27:50.113Z,60.87
2022-12-14T13:30:22.991Z,60.74
2022-12-14T13:32:56.457Z,59.49
2022-12-14T13:35:53.991Z,59.11
2022-12-14T13:38:45.739Z,58.01
2022-12-14T13:41:41.723Z,57.25
2022-12-14T13:44:20.339Z,56.34
2022-12-14T13:46:59.288Z,56.41
2022-12-14T13:49:26.886Z,56.53
2022-12-14T13:51:55.384Z,56.16
2022-12-14T13:54:32.541Z,55.70
2022-12-14T13:57:21.497Z,56.68
2022-12-14T13:59:53.548Z,57.28
2022-12-14T14:02:32.313Z,58.17
2022-12-14T14:05:14.572Z,58.35
2022-12-14T14:07:56.814Z,58.18
2022-12-14T14:10:54.226Z,58.15
2022-12-14T14:13:29.557Z,58.83
2022-12-14T14:16:27.486Z,58.42
2022-12-14T14:19:08.244Z,57.73
2022-12-14T14:22:22.186Z,58.17
2022-12-14T14:25:02.581Z,59.06
2022-12-14T14:27:37.091Z,59.05
2022-12-14T14:30:38.131Z,59.09
2022-12-14T14:33:44.802Z,59.05
2022-12-14T14:36:27.127Z,58.34
2022-12-14T14:38:55.984Z,58.04
2022-12-14T14:41:30.151Z,58.46
2022-12-14T14:44:03.049Z,58.38
2022-12-14T14:46:46.241Z,58.75
2022-12-14T14:49:30.629Z,59.10
2022-12-14T14:52:17.484Z,58.75
2022-12-14T14:55:16.297Z,58.31
2022-12-14T14:57:55.560Z,57.85
2022-12-14T15:00:25.892Z,57.05
2022-12-14T15:02:54.288Z,57.38
2022-12-14T15:05:43.510Z,57.66
2022-12-14T15:08:20.208Z,57.73
2022-12-14T15:10:48.217Z,57.64
2022-12-14T15:13:28.240Z,56.97
2022-12-14T15:15:56.658Z,57.87
2022-12-14T15:18:26.906Z,57.91
2022-12-14T15:20:55.320Z,57.84
2022-12-14T15:23:22.835Z,57.92
2022-12-14T15:26:01.611Z,57.24
2022-12-14T15:28:29.262Z,57.78
2022-12-14T15:30:59.234Z,57.69
2022-12-14T15:33:38.100Z,57.83
2022-12-14T15:36:13.844Z,57.38
2022-12-14T15:38:40.500Z,57.36
2022-12-14T15:41:16.726Z,56.86
2022-12-14T15:43:45.025Z,57.38
2022-12-14T15:46:25.184Z,56.74
2022-12-14T15:48:57.339Z,56.92
2022-12-14T15:51:35.700Z,56.68
2022-12-14T15:54:04.557Z,56.86
2022-12-14T15:56:35.169Z,57.30
2022-12-14T15:59:07.421Z,56.81
2022-12-14T16:01:45.026Z,56.95
2022-12-14T16:04:22.945Z,56.73
2022-12-14T16:07:01.692Z,57.03
2022-12-14T16:10:03.639Z,57.56
2022-12-14T16:12:45.856Z,56.26
2022-12-14T16:15:31.238Z,56.74
2022-12-14T16:18:02.794Z,56.65
2022-12-14T16:20:37.046Z,57.10
2022-12-14T16:23:06.638Z,57.20
2022-12-14T16:25:37.329Z,57.06
2022-12-14T16:28:22.157Z,56.65
2022-12-14T16:31:08.347Z,56.93
2022-12-14T16:33:36.943Z,57.13
2022-12-14T16:36:21.939Z,56.89
2022-12-14T16:39:20.820Z,56.57
2022-12-14T16:42:00.617Z,55.67
2022-12-14T16:44:34.478Z,56.43
2022-12-14T16:47:01.401Z,55.96
2022-12-14T16:49:32.402Z,56.79
2022-12-14T16:52:21.339Z,56.50
2022-12-14T16:55:14.445Z,56.81
2022-12-14T16:57:53.083Z,56.10
2022-12-14T17:00:32.881Z,56.24
2022-12-14T17:03:23.383Z,56.55
2022-12-14T17:05:58.474Z,56.39
2022-12-14T17:08:25.547Z,56.70
2022-12-14T17:10:52.517Z,56.64
2022-12-14T17:13:23.036Z,56.39
2022-12-14T17:16:06.333Z,56.26
2022-12-14T17:18:40.948Z,56.36
2022-12-14T17:21:15.612Z,56.82
2022-12-14T17:23:43.750Z,57.08
2022-12-14T17:26:24.083Z,57.12
2022-12-14T17:28:59.052Z,57.39
2022-12-14T17:31:30.296Z,57.87
2022-12-14T17:33:57.736Z,57.36
2022-12-14T17:36:25.265Z,57.28
2022-12-14T17:38:51.871Z,57.13
2022-12-14T17:41:25.971Z,57.59
2022-12-14T17:43:57.136Z,56.81
2022-12-14T17:46:25.190Z,57.27
2022-12-14T17:48:52.028Z,57.02
2022-12-14T17:51:25.831Z,57.67
2022-12-14T17:53:54.212Z,57.24
2022-12-14T17:56:21.633Z,56.55
2022-12-14T17:58:48.680Z,56.97
2022-12-14T18:01:22.601Z,57.49
2022-12-14T18:03:50.905Z,57.47
2022-12-14T18:06:18.926Z,57.40
2022-12-14T18:08:52.444Z,58.41
2022-12-14T18:11:26.928Z,58.42
2022-12-14T18:13:54.340Z,57.95
2022-12-14T18:16:22.929Z,58.25
2022-12-14T18:18:57.973Z,57.58
2022-12-14T18:21:28.063Z,58.04
2022-12-14T18:23:55.988Z,57.89
2022-12-14T18:26:25.172Z,57.19
2022-12-14T18:28:54.182Z,57.36
2022-12-14T18:31:36.019Z,57.27
2022-12-14T18:34:03.657Z,57.63
2022-12-14T18:36:30.841Z,57.92
2022-12-14T18:38:59.222Z,56.97
2022-12-14T18:41:27.386Z,57.19
2022-12-14T18:43:55.839Z,57.04
2022-12-14T18:46:23.556Z,57.25
2022-12-14T18:48:51.301Z,57.30
2022-12-14T18:51:23.366Z,57.46
2022-12-14T18:53:51.444Z,57.91
2022-12-14T18:56:18.676Z,58.39
2022-12-14T18:58:46.538Z,58.60
2022-12-14T19:01:16.990Z,58.49
2022-12-14T19:03:45.089Z,58.40
2022-12-14T19:09:10.044Z,57.96
2022-12-14T19:11:39.366Z,58.15
2022-12-14T19:14:07.107Z,58.00
2022-12-14T19:16:34.348Z,58.17
2022-12-14T19:19:01.093Z,57.55
2022-12-14T19:21:29.759Z,57.83
2022-12-14T19:23:59.293Z,57.82
2022-12-14T19:26:28.145Z,58.28
2022-12-14T19:28:54.930Z,58.05
2022-12-14T19:31:21.781Z,57.69
2022-12-14T19:33:48.596Z,57.58
2022-12-14T19:36:15.488Z,57.19
2022-12-14T19:38:42.465Z,57.21
2022-12-14T19:41:12.110Z,57.28
2022-12-14T19:43:38.931Z,57.39
2022-12-14T19:46:07.882Z,56.87
2022-12-14T19:48:35.145Z,57.67
2022-12-14T19:51:11.607Z,57.30
2022-12-14T19:53:39.922Z,57.38
2022-12-14T19:56:06.826Z,56.89
2022-12-14T19:58:33.628Z,57.03
2022-12-14T20:01:00.472Z,57.67
2022-12-14T20:03:28.043Z,56.77
2022-12-14T20:05:59.698Z,57.70
2022-12-14T20:08:28.810Z,57.79
2022-12-14T20:10:55.898Z,57.03
2022-12-14T20:13:24.374Z,57.53
2022-12-14T20:15:53.750Z,57.90
2022-12-14T20:18:21.361Z,57.88
2022-12-14T20:20:49.439Z,58.36
2022-12-14T20:23:20.462Z,58.31
2022-12-14T20:25:47.994Z,58.59
2022-12-14T20:28:14.759Z,58.89
2022-12-14T20:30:49.741Z,58.76
2022-12-14T20:33:16.275Z,58.95
2022-12-14T20:35:42.941Z,59.23
2022-12-14T20:38:09.706Z,58.69
2022-12-14T20:40:38.908Z,58.56
2022-12-14T20:43:06.534Z,58.92
2022-12-14T20:45:37.883Z,59.66
2022-12-14T20:48:04.908Z,59.30
2022-12-14T20:50:31.579Z,59.23
2022-12-14T20:52:58.156Z,58.60
2022-12-14T20:55:24.924Z,58.87
2022-12-14T20:57:51.685Z,58.80
2022-12-14T21:00:19.195Z,59.25
2022-12-14T21:02:46.257Z,59.39
2022-12-14T21:05:13.187Z,58.87
2022-12-14T21:07:39.966Z,59.04
2022-12-14T21:10:07.297Z,58.55
2022-12-14T21:12:34.668Z,58.31
2022-12-14T21:15:01.593Z,58.12
2022-12-14T21:17:30.171Z,57.56
2022-12-14T21:19:57.863Z,58.12
2022-12-14T21:22:27.557Z,57.62
2022-12-14T21:25:03.565Z,58.20
2022-12-14T21:27:33.780Z,58.11
2022-12-14T21:30:00.711Z,58.10
2022-12-14T21:32:27.979Z,57.73
2022-12-14T21:34:54.651Z,57.74
2022-12-14T21:37:22.043Z,57.67
2022-12-14T21:39:54.369Z,58.82
2022-12-14T21:42:25.676Z,58.07
2022-12-14T21:44:54.305Z,58.06
2022-12-14T21:47:24.160Z,58.52
2022-12-14T21:49:50.811Z,58.31
2022-12-14T21:52:23.390Z,58.03
2022-12-14T21:54:50.489Z,58.39
2022-12-14T21:57:38.763Z,57.97
2022-12-14T22:00:07.424Z,57.82
2022-12-14T22:02:41.860Z,58.69
2022-12-14T22:05:09.805Z,58.85
2022-12-14T22:07:36.429Z,59.63
2022-12-14T22:10:03.311Z,59.85
2022-12-14T22:12:30.131Z,59.92
2022-12-14T22:14:56.767Z,60.19
2022-12-14T22:17:23.697Z,60.16
2022-12-14T22:19:52.051Z,60.00
2022-12-14T22:22:18.693Z,60.17
2022-12-14T22:24:48.186Z,59.76
2022-12-14T22:27:14.924Z,59.39
2022-12-14T22:29:41.555Z,59.33
2022-12-14T22:32:08.442Z,58.66
2022-12-14T22:34:35.213Z,58.81
2022-12-14T22:37:01.905Z,58.62
2022-12-14T22:39:28.951Z,58.33
2022-12-14T22:41:55.679Z,58.54
2022-12-14T22:44:22.335Z,57.78
2022-12-14T22:46:49.910Z,58.22
2022-12-14T22:49:19.104Z,57.83
2022-12-14T22:51:46.294Z,57.66
2022-12-14T22:54:25.387Z,57.55
2022-12-14T22:56:58.501Z,57.84
2022-12-14T22:59:33.507Z,58.21
2022-12-14T23:02:00.575Z,59.15
2022-12-14T23:04:27.556Z,58.79
2022-12-14T23:06:54.783Z,58.46
2022-12-14T23:09:40.648Z,58.77
2022-12-14T23:12:26.231Z,58.63
2022-12-14T23:15:11.433Z,58.22
2022-12-14T23:17:56.297Z,58.49
2022-12-14T23:20:41.689Z,58.72
2022-12-14T23:23:28.336Z,58.86
2022-12-14T23:26:13.850Z,58.02
2022-12-14T23:28:59.161Z,58.09
2022-12-14T23:31:44.584Z,57.70
2022-12-14T23:34:29.796Z,57.71
2022-12-14T23:37:20.054Z,57.89
2022-12-14T23:40:06.417Z,58.25
2022-12-14T23:42:51.855Z,58.28
2022-12-14T23:45:37.595Z,58.73
2022-12-14T23:48:22.634Z,58.21
2022-12-14T23:51:09.348Z,58.33
2022-12-14T23:53:54.526Z,57.68
2022-12-14T23:56:39.548Z,58.26
2022-12-14T23:59:29.947Z,58.61
